Airfield :
LOGIN :

Register | Disclaimer

   EN    FR    IT 

 










Legend :    VFR   Marginal VFR   IFR   Intensive IFR   Very Intensive IFR
Visi :
Ceiling :
>= 8 km
>= 3000ft
5 to 8 km
1000 to 3000 ft
1500m to 5 km
500 to 1000 ft
800 to 1500m
200 to 500 ft
< 800m
< 200 ft
Symbols :   Thunderstorms  Fog  Heavy snow  Heavy precipitations  Wind > 20 kt
SIGMETs :     Misc.  Thunderstorms  Icing  Turbulence  Mountain Waves  Volcanic Ashes






- Airport Elevation : 257 ft
- IATA code : MAN


EGCC - Manchester

CURRENT METAR :
  • 262050Z AUTO 22009KT 9999 -RA SCT023 BKN031 08/07 Q0997 TEMPO SHRA

EXPIRED METARs :
  • 262020Z AUTO 23009KT 9999 SCT025 BKN032 08/07 Q0997 TEMPO SHRA
  • 261950Z AUTO 23009KT 9999 BKN021/// //////CB 08/07 Q0997 RERA
  • 261920Z 24007KT 6000 RA SCT019CB BKN026 BKN041 09/07 Q0997 TEMPO NSW
  • 261850Z AUTO 24009KT 9999 SCT021/// SCT036/// BKN048/// //////CB 09/07 Q0996 TEMPO SHRA
  • 261820Z AUTO 25017KT 9999 -RA FEW017/// BKN021/// BKN028/// //////CB 09/07 Q0996 NOSIG
  • 261750Z AUTO 25013KT 9999 BKN021/// BKN028/// //////CB 10/07 Q0996 RERA

TAF TAF EGCC
Valid from the 26 at 18:00 until the 28 at 00:00 UTC


261655Z 2618/2724 27012KT 9999 FEW025
PROB30
TEMPO 2618/2624 7000 SHRA
BECMG 2700/2703 21006KT
BECMG 2706/2709 15010KT BKN012
TEMPO 2707/2716 5000 RA BKN009
BECMG 2713/2716 23010KT FEW025
PROB30
TEMPO 2716/2721 6000 SHRA
ATIS : +44 161 499 2324



MET'MAP, your aeronautical weather chart ! - Copyright ORBIFLY December 2007 - Disclaimer

ORBIFLY MET'MAP TEAM :

Programming & Development : Alexandra Zaïnal
Concept & original design : Baudouin d'Aumeries
Assistance for programming : Marc-Olivier Méhu
Technical & hardware support : Manuel Goepfert

Contact : metmap@orbifly.com




SOURCES & CREDITS :

   NOAA